createdAt,value
2019-03-19T00:00:51.250Z,43.20
2019-03-19T00:01:51.236Z,43.90
2019-03-19T00:02:51.227Z,36.00
2019-03-19T00:03:51.367Z,37.00
2019-03-19T00:04:51.206Z,34.50
2019-03-19T00:05:51.195Z,34.59
2019-03-19T00:06:51.183Z,42.79
2019-03-19T00:07:51.174Z,45.09
2019-03-19T00:08:51.165Z,38.29
2019-03-19T00:09:51.252Z,39.70
2019-03-19T00:10:51.142Z,39.79
2019-03-19T00:11:51.132Z,42.70
2019-03-19T00:12:51.121Z,37.90
2019-03-19T00:13:51.115Z,35.59
2019-03-19T00:14:51.096Z,35.40
2019-03-19T00:15:51.139Z,39.29
2019-03-19T00:16:51.072Z,37.59
2019-03-19T00:17:51.071Z,33.79
2019-03-19T00:18:51.056Z,36.70
2019-03-19T00:19:51.047Z,40.09
2019-03-19T00:20:51.036Z,40.09
2019-03-19T00:21:51.173Z,46.70
2019-03-19T00:22:51.015Z,33.20
2019-03-19T00:23:51.006Z,37.50
2019-03-19T00:24:50.993Z,38.40
2019-03-19T00:25:53.127Z,42.40
2019-03-19T00:26:50.972Z,47.50
2019-03-19T00:27:51.065Z,39.70
2019-03-19T00:28:50.952Z,32.59
2019-03-19T00:29:50.941Z,35.59
2019-03-19T00:30:50.927Z,35.90
2019-03-19T00:31:50.913Z,39.70
2019-03-19T00:32:50.908Z,36.20
2019-03-19T00:33:50.945Z,34.50
2019-03-19T00:34:50.888Z,38.70
2019-03-19T00:35:50.878Z,35.90
2019-03-19T00:36:50.869Z,32.70
2019-03-19T00:37:50.857Z,38.40
2019-03-19T00:38:50.845Z,36.29
2019-03-19T00:39:51.032Z,39.20
2019-03-19T00:40:50.826Z,37.00
2019-03-19T00:41:50.820Z,35.00
2019-03-19T00:42:50.813Z,29.89
2019-03-19T00:43:50.792Z,36.09
2019-03-19T00:44:50.782Z,33.90
2019-03-19T00:45:50.822Z,33.09
2019-03-19T00:46:50.761Z,30.50
2019-03-19T00:47:50.752Z,27.89
2019-03-19T00:48:50.737Z,28.89
2019-03-19T00:49:50.726Z,26.20
2019-03-19T00:50:50.720Z,29.79
2019-03-19T00:51:50.758Z,28.70
2019-03-19T00:52:50.698Z,35.09
2019-03-19T00:53:50.695Z,39.79
2019-03-19T00:54:50.677Z,25.79
2019-03-19T00:55:50.671Z,30.20
2019-03-19T00:56:50.657Z,30.89
2019-03-19T00:57:50.796Z,33.50
2019-03-19T00:58:50.636Z,31.39
2019-03-19T00:59:50.627Z,30.70
2019-03-19T01:00:50.616Z,35.29
2019-03-19T01:01:50.606Z,25.29
2019-03-19T01:02:50.590Z,28.70
2019-03-19T01:03:50.630Z,25.60
2019-03-19T01:04:50.574Z,31.50
2019-03-19T01:05:50.562Z,28.79
2019-03-19T01:06:50.548Z,24.89
2019-03-19T01:07:50.542Z,28.89
2019-03-19T01:08:50.533Z,32.59
2019-03-19T01:09:50.619Z,34.20
2019-03-19T01:10:50.511Z,30.89
2019-03-19T01:11:50.504Z,36.09
2019-03-19T01:12:50.488Z,34.20
2019-03-19T01:13:50.479Z,45.70
2019-03-19T01:14:50.465Z,44.70
2019-03-19T01:15:50.508Z,48.20
2019-03-19T01:16:50.447Z,56.90
2019-03-19T01:17:50.434Z,63.79
2019-03-19T01:18:50.424Z,72.90
2019-03-19T01:19:50.416Z,66.40
2019-03-19T01:20:50.405Z,62.50
2019-03-19T01:21:50.441Z,58.59
2019-03-19T01:22:50.384Z,53.09
2019-03-19T01:23:50.375Z,57.29
2019-03-19T01:24:50.363Z,60.00
2019-03-19T01:25:55.475Z,56.50
2019-03-19T01:26:50.345Z,64.69
2019-03-19T01:27:50.378Z,62.29
2019-03-19T01:28:50.320Z,60.79
2019-03-19T01:29:50.310Z,54.40
2019-03-19T01:30:50.301Z,70.30
2019-03-19T01:31:50.291Z,59.29
2019-03-19T01:32:50.425Z,66.80
2019-03-19T01:33:50.269Z,64.80
2019-03-19T01:34:50.258Z,67.69
2019-03-19T01:35:50.246Z,75.40
2019-03-19T01:36:50.237Z,61.50
2019-03-19T01:37:50.227Z,74.40
2019-03-19T01:38:50.312Z,73.00
2019-03-19T01:39:50.206Z,68.50
2019-03-19T01:40:50.196Z,70.09
2019-03-19T01:41:50.183Z,65.30
2019-03-19T01:42:50.173Z,69.80
2019-03-19T01:43:50.158Z,70.90
2019-03-19T01:44:50.201Z,84.40
2019-03-19T01:45:50.141Z,62.90
2019-03-19T01:46:50.128Z,67.59
2019-03-19T01:47:50.119Z,63.29
2019-03-19T01:48:50.109Z,75.40
2019-03-19T01:49:50.099Z,64.90
2019-03-19T01:50:50.240Z,67.40
2019-03-19T01:51:50.077Z,61.90
2019-03-19T01:52:50.070Z,57.00
2019-03-19T01:53:50.052Z,69.40
2019-03-19T01:54:50.043Z,52.09
2019-03-19T01:55:50.038Z,62.00
2019-03-19T01:56:50.074Z,62.59
2019-03-19T01:57:50.015Z,62.79
2019-03-19T01:58:50.005Z,72.90
2019-03-19T01:59:49.995Z,66.00
2019-03-19T02:00:49.987Z,58.59
2019-03-19T02:01:50.025Z,58.59
2019-03-19T02:02:49.971Z,63.00
2019-03-19T02:03:49.952Z,68.30
2019-03-19T02:04:49.942Z,66.30
2019-03-19T02:05:49.932Z,67.59
2019-03-19T02:06:49.921Z,74.50
2019-03-19T02:07:49.957Z,73.40
2019-03-19T02:08:49.901Z,67.80
2019-03-19T02:09:49.891Z,66.00
2019-03-19T02:10:49.878Z,67.00
2019-03-19T02:11:49.868Z,77.09
2019-03-19T02:12:50.007Z,85.69
2019-03-19T02:13:49.848Z,82.59
2019-03-19T02:14:49.836Z,73.09
2019-03-19T02:15:49.827Z,84.80
2019-03-19T02:16:49.817Z,79.40
2019-03-19T02:17:49.809Z,83.59
2019-03-19T02:18:49.857Z,88.00
2019-03-19T02:19:49.784Z,90.50
2019-03-19T02:20:49.779Z,84.50
2019-03-19T02:21:49.759Z,85.59
2019-03-19T02:22:49.753Z,93.09
2019-03-19T02:23:49.746Z,92.40
2019-03-19T02:24:49.782Z,100.80
2019-03-19T02:25:49.721Z,87.50
2019-03-19T02:26:49.710Z,93.09
2019-03-19T02:27:49.701Z,96.90
2019-03-19T02:28:49.687Z,96.90
2019-03-19T02:29:49.730Z,99.09
2019-03-19T02:30:49.670Z,97.69
2019-03-19T02:31:49.657Z,94.50
2019-03-19T02:32:49.645Z,93.59
2019-03-19T02:33:49.634Z,88.59
2019-03-19T02:34:49.631Z,84.90
2019-03-19T02:35:49.666Z,99.09
2019-03-19T02:36:49.609Z,77.69
2019-03-19T02:37:49.615Z,70.80
2019-03-19T02:38:49.586Z,82.40
2019-03-19T02:39:49.588Z,80.00
2019-03-19T02:40:49.566Z,79.90
2019-03-19T02:41:49.674Z,75.30
2019-03-19T02:42:49.544Z,80.80
2019-03-19T02:43:49.549Z,79.40
2019-03-19T02:44:49.533Z,81.69
2019-03-19T02:45:49.512Z,85.40
2019-03-19T02:46:49.651Z,90.40
2019-03-19T02:47:49.491Z,94.40
2019-03-19T02:48:49.484Z,94.30
2019-03-19T02:49:49.473Z,98.50
2019-03-19T02:50:49.464Z,109.59
2019-03-19T02:51:49.452Z,86.40
2019-03-19T02:52:49.487Z,108.00
2019-03-19T02:53:49.428Z,97.30
2019-03-19T02:54:49.419Z,98.69
2019-03-19T02:55:49.404Z,88.69
2019-03-19T02:56:49.403Z,84.00
2019-03-19T02:57:49.384Z,66.30
2019-03-19T02:58:49.422Z,88.69
2019-03-19T02:59:49.365Z,81.30
2019-03-19T03:00:49.349Z,85.90
2019-03-19T03:01:49.350Z,90.50
2019-03-19T03:02:49.340Z,80.59
2019-03-19T03:03:49.325Z,95.19
2019-03-19T03:04:49.460Z,92.80
2019-03-19T03:05:49.301Z,100.30
2019-03-19T03:06:49.294Z,96.80
2019-03-19T03:07:49.279Z,98.80
2019-03-19T03:08:49.268Z,108.09
2019-03-19T03:09:49.258Z,106.50
2019-03-19T03:10:49.347Z,91.19
2019-03-19T03:11:49.238Z,106.69
2019-03-19T03:12:49.221Z,97.30
2019-03-19T03:13:49.218Z,100.00
2019-03-19T03:14:49.205Z,94.50
2019-03-19T03:15:49.194Z,96.90
2019-03-19T03:16:49.286Z,99.50
2019-03-19T03:17:49.195Z,98.00
2019-03-19T03:18:49.163Z,101.09
2019-03-19T03:19:49.151Z,89.19
2019-03-19T03:20:49.140Z,101.30
2019-03-19T03:21:49.131Z,83.80
2019-03-19T03:22:49.270Z,77.80
2019-03-19T03:23:49.107Z,107.19
2019-03-19T03:24:49.096Z,99.19
2019-03-19T03:25:49.084Z,104.90
2019-03-19T03:26:49.079Z,105.69
2019-03-19T03:27:49.065Z,107.40
2019-03-19T03:28:49.114Z,88.19
2019-03-19T03:29:49.043Z,104.09
2019-03-19T03:30:49.034Z,99.00
2019-03-19T03:31:49.025Z,89.80
2019-03-19T03:32:49.014Z,78.30
2019-03-19T03:33:48.998Z,89.40
2019-03-19T03:34:49.037Z,84.59
2019-03-19T03:35:48.978Z,67.90
2019-03-19T03:36:48.967Z,72.90
2019-03-19T03:37:48.957Z,70.90
2019-03-19T03:38:48.945Z,83.90
2019-03-19T03:39:48.935Z,69.30
2019-03-19T03:40:49.325Z,61.00
2019-03-19T03:41:48.924Z,57.59
2019-03-19T03:42:48.902Z,63.20
2019-03-19T03:43:48.892Z,57.70
2019-03-19T03:44:48.883Z,66.80
2019-03-19T03:45:48.873Z,66.09
2019-03-19T03:46:48.963Z,57.40
2019-03-19T03:47:48.853Z,67.69
2019-03-19T03:48:48.851Z,62.29
2019-03-19T03:49:48.829Z,65.90
2019-03-19T03:50:48.817Z,64.50
2019-03-19T03:51:48.811Z,59.59
2019-03-19T03:52:48.845Z,62.20
2019-03-19T03:53:48.789Z,64.09
2019-03-19T03:54:48.806Z,55.79
2019-03-19T03:55:48.769Z,52.70
2019-03-19T03:57:01.377Z,53.50
2019-03-19T03:58:13.710Z,57.20
2019-03-19T03:59:13.701Z,58.90
2019-03-19T04:00:13.691Z,55.90
2019-03-19T04:01:13.672Z,52.79
2019-03-19T04:02:13.720Z,62.50
2019-03-19T04:03:13.709Z,58.20
2019-03-19T04:04:13.645Z,59.20
2019-03-19T04:05:13.649Z,62.59
2019-03-19T04:06:13.619Z,55.20
2019-03-19T04:07:13.640Z,68.09
2019-03-19T04:08:13.599Z,62.40
2019-03-19T04:09:13.638Z,57.59
2019-03-19T04:10:13.580Z,58.09
2019-03-19T04:11:13.566Z,66.19
2019-03-19T04:12:13.560Z,64.69
2019-03-19T04:13:13.546Z,71.69
2019-03-19T04:14:13.551Z,72.00
2019-03-19T04:15:13.776Z,70.59
2019-03-19T04:16:13.514Z,70.59
2019-03-19T04:17:13.505Z,65.90
2019-03-19T04:18:13.494Z,70.90
2019-03-19T04:19:13.482Z,67.59
2019-03-19T04:20:13.474Z,72.90
2019-03-19T04:21:13.512Z,56.79
2019-03-19T04:22:15.950Z,65.09
2019-03-19T04:23:13.446Z,65.50
2019-03-19T04:24:13.428Z,73.00
2019-03-19T04:25:13.418Z,74.90
2019-03-19T04:26:13.409Z,85.69
2019-03-19T04:27:16.324Z,95.90
2019-03-19T04:28:13.390Z,89.40
2019-03-19T04:29:13.376Z,87.69
2019-03-19T04:30:13.365Z,91.59
2019-03-19T04:31:13.366Z,87.00
2019-03-19T04:32:13.341Z,81.69
2019-03-19T04:33:13.487Z,78.59
2019-03-19T04:34:13.321Z,77.19
2019-03-19T04:35:13.317Z,81.00
2019-03-19T04:36:13.300Z,92.59
2019-03-19T04:37:13.375Z,90.30
2019-03-19T04:38:13.279Z,90.69
2019-03-19T04:39:13.323Z,80.50
2019-03-19T04:40:13.271Z,88.09
2019-03-19T04:41:13.249Z,80.40
2019-03-19T04:42:13.239Z,82.90
2019-03-19T04:43:13.230Z,84.50
2019-03-19T04:44:13.225Z,83.00
2019-03-19T04:45:13.255Z,74.59
2019-03-19T04:46:13.196Z,71.80
2019-03-19T04:47:13.188Z,74.30
2019-03-19T04:48:13.175Z,73.59
2019-03-19T04:49:13.165Z,77.30
2019-03-19T04:50:13.154Z,74.69
2019-03-19T04:51:13.294Z,79.59
2019-03-19T04:52:13.148Z,79.09
2019-03-19T04:53:13.121Z,72.30
2019-03-19T04:54:13.109Z,77.40
2019-03-19T04:55:13.102Z,71.19
2019-03-19T04:56:13.094Z,72.80
2019-03-19T04:57:13.239Z,70.40
2019-03-19T04:58:13.070Z,83.90
2019-03-19T04:59:13.061Z,73.69
2019-03-19T05:00:13.052Z,74.90
2019-03-19T05:01:13.043Z,78.00
2019-03-19T05:03:13.119Z,79.00
2019-03-19T05:04:13.009Z,77.09
2019-03-19T05:05:13.003Z,68.30
2019-03-19T05:06:12.986Z,70.09
2019-03-19T05:07:12.978Z,71.30
2019-03-19T05:08:13.166Z,70.59
2019-03-19T05:09:12.958Z,73.30
2019-03-19T05:10:12.944Z,74.00
2019-03-19T05:11:12.934Z,72.59
2019-03-19T05:12:12.922Z,68.59
2019-03-19T05:13:12.960Z,76.59
2019-03-19T05:14:12.901Z,77.09
2019-03-19T05:15:12.896Z,78.40
2019-03-19T05:16:12.884Z,80.90
2019-03-19T05:17:12.873Z,76.69
2019-03-19T05:18:12.863Z,76.00
2019-03-19T05:19:12.901Z,80.50
2019-03-19T05:20:12.842Z,83.19
2019-03-19T05:21:12.831Z,85.19
2019-03-19T05:22:12.814Z,75.59
2019-03-19T05:23:12.803Z,73.30
2019-03-19T05:24:12.797Z,83.69
2019-03-19T05:25:12.837Z,80.69
2019-03-19T05:26:12.776Z,78.09
2019-03-19T05:27:13.979Z,77.50
2019-03-19T05:28:12.752Z,74.30
2019-03-19T05:29:12.748Z,80.09
2019-03-19T05:30:12.978Z,81.59
2019-03-19T05:31:12.722Z,79.30
2019-03-19T05:32:12.713Z,79.90
2019-03-19T05:33:12.703Z,73.59
2019-03-19T05:34:12.694Z,74.80
2019-03-19T05:35:12.681Z,71.59
2019-03-19T05:36:12.770Z,71.00
2019-03-19T05:37:12.661Z,71.50
2019-03-19T05:38:12.648Z,82.09
2019-03-19T05:39:12.642Z,79.59
2019-03-19T05:40:12.624Z,78.19
2019-03-19T05:41:12.664Z,84.00
2019-03-19T05:42:12.603Z,83.40
2019-03-19T05:43:12.594Z,88.80
2019-03-19T05:44:12.578Z,84.80
2019-03-19T05:45:12.572Z,85.00
2019-03-19T05:46:12.812Z,76.09
2019-03-19T05:47:12.549Z,78.50
2019-03-19T05:48:12.536Z,67.59
2019-03-19T05:49:12.529Z,80.50
2019-03-19T05:50:12.514Z,79.50
2019-03-19T05:51:12.605Z,73.90
2019-03-19T05:52:12.495Z,79.50
2019-03-19T05:53:12.483Z,79.90
2019-03-19T05:54:12.473Z,83.40
2019-03-19T05:55:12.465Z,80.30
2019-03-19T05:56:12.454Z,76.19
2019-03-19T05:57:12.543Z,84.40
2019-03-19T05:58:12.432Z,77.00
2019-03-19T05:59:12.420Z,82.40
2019-03-19T06:00:12.410Z,74.59
2019-03-19T06:01:12.400Z,83.09
2019-03-19T06:02:12.385Z,82.00
2019-03-19T06:03:12.576Z,86.00
2019-03-19T06:04:12.367Z,90.50
2019-03-19T06:05:12.359Z,89.40
2019-03-19T06:06:12.346Z,82.59
2019-03-19T06:07:12.335Z,84.80
2019-03-19T06:08:12.325Z,85.69
2019-03-19T06:09:12.416Z,95.50
2019-03-19T06:10:12.334Z,86.09
2019-03-19T06:11:12.290Z,79.80
2019-03-19T06:12:12.281Z,90.00
2019-03-19T06:13:12.272Z,90.19
2019-03-19T06:14:12.257Z,97.59
2019-03-19T06:15:12.350Z,90.09
2019-03-19T06:16:12.238Z,85.50
2019-03-19T06:17:12.241Z,93.90
2019-03-19T06:18:12.216Z,91.19
2019-03-19T06:19:12.208Z,90.09
2019-03-19T06:20:12.195Z,90.19
2019-03-19T06:21:12.381Z,100.30
2019-03-19T06:22:12.173Z,93.40
2019-03-19T06:23:12.159Z,100.30
2019-03-19T06:24:12.154Z,99.59
2019-03-19T06:25:12.145Z,104.09
2019-03-19T06:26:12.134Z,99.90
2019-03-19T06:27:12.169Z,99.80
2019-03-19T06:28:12.110Z,97.50
2019-03-19T06:29:12.098Z,101.00
2019-03-19T06:30:12.087Z,104.50
2019-03-19T06:31:12.077Z,100.40
2019-03-19T06:32:12.066Z,96.00
2019-03-19T06:33:12.154Z,107.50
2019-03-19T06:34:12.043Z,110.69
2019-03-19T06:35:12.035Z,105.80
2019-03-19T06:36:12.024Z,108.19
2019-03-19T06:37:12.011Z,115.69
2019-03-19T06:38:11.998Z,108.09
2019-03-19T06:39:12.035Z,107.30
2019-03-19T06:40:11.976Z,107.09
2019-03-19T06:41:11.967Z,100.00
2019-03-19T06:42:11.959Z,104.30
2019-03-19T06:43:11.944Z,110.19
2019-03-19T06:44:12.285Z,108.00
2019-03-19T06:45:11.921Z,93.00
2019-03-19T06:46:11.917Z,98.19
2019-03-19T06:47:11.899Z,86.09
2019-03-19T06:48:11.894Z,86.80
2019-03-19T06:49:11.882Z,93.90
2019-03-19T06:50:11.925Z,83.80
2019-03-19T06:51:11.862Z,84.80
2019-03-19T06:52:11.850Z,90.09
2019-03-19T06:53:11.839Z,94.30
2019-03-19T06:54:11.827Z,89.90
2019-03-19T06:55:11.814Z,88.69
2019-03-19T06:56:11.862Z,104.30
2019-03-19T06:57:11.794Z,94.30
2019-03-19T06:58:11.784Z,95.40
2019-03-19T06:59:11.773Z,89.30
2019-03-19T07:00:11.764Z,86.00
2019-03-19T07:01:11.853Z,89.80
2019-03-19T07:02:11.742Z,93.40
2019-03-19T07:03:11.734Z,82.90
2019-03-19T07:04:11.717Z,81.69
2019-03-19T07:05:11.707Z,63.40
2019-03-19T07:06:11.699Z,91.19
2019-03-19T07:07:11.740Z,75.19
2019-03-19T07:08:11.674Z,80.80
2019-03-19T07:09:11.668Z,80.50
2019-03-19T07:10:11.652Z,76.90
2019-03-19T07:11:11.651Z,87.80
2019-03-19T07:12:11.885Z,86.40
2019-03-19T07:13:11.624Z,81.00
2019-03-19T07:14:11.615Z,77.09
2019-03-19T07:15:11.603Z,84.50
2019-03-19T07:16:11.592Z,78.19
2019-03-19T07:17:11.577Z,81.69
2019-03-19T07:18:11.667Z,78.69
2019-03-19T07:19:11.559Z,87.69
2019-03-19T07:20:11.549Z,81.19
2019-03-19T07:21:11.536Z,78.00
2019-03-19T07:22:11.527Z,68.80
2019-03-19T07:23:11.517Z,74.69
2019-03-19T07:24:11.605Z,69.69
2019-03-19T07:25:11.494Z,67.00
2019-03-19T07:26:11.484Z,61.70
2019-03-19T07:27:11.470Z,64.19
2019-03-19T07:28:21.680Z,71.90
2019-03-19T07:29:36.414Z,79.50
2019-03-19T07:30:36.405Z,77.90
2019-03-19T07:31:36.394Z,77.59
2019-03-19T07:32:36.379Z,79.59
2019-03-19T07:33:36.372Z,81.50
2019-03-19T07:34:36.411Z,88.30
2019-03-19T07:35:36.347Z,90.69
2019-03-19T07:36:36.340Z,82.09
2019-03-19T07:37:36.331Z,88.90
2019-03-19T07:38:36.320Z,81.90
2019-03-19T07:39:36.308Z,94.90
2019-03-19T07:40:36.397Z,82.69
2019-03-19T07:41:36.288Z,80.59
2019-03-19T07:42:36.274Z,74.19
2019-03-19T07:43:36.266Z,74.50
2019-03-19T07:44:36.255Z,77.59
2019-03-19T07:45:36.246Z,79.59
2019-03-19T07:46:36.633Z,81.19
2019-03-19T07:47:36.224Z,72.30
2019-03-19T07:48:36.213Z,78.40
2019-03-19T07:49:36.200Z,64.50
2019-03-19T07:50:36.189Z,78.40
2019-03-19T07:51:36.179Z,74.50
2019-03-19T07:52:36.269Z,74.40
2019-03-19T07:53:36.160Z,95.90
2019-03-19T07:54:36.148Z,85.19
2019-03-19T07:55:36.134Z,81.50
2019-03-19T07:56:36.127Z,85.50
2019-03-19T07:57:36.117Z,87.00
2019-03-19T07:58:44.701Z,98.69
2019-03-19T08:00:00.908Z,76.80
2019-03-19T08:01:00.899Z,83.00
2019-03-19T08:02:00.883Z,75.09
2019-03-19T08:03:00.876Z,71.80
2019-03-19T08:04:01.010Z,71.30
2019-03-19T08:05:00.855Z,68.59
2019-03-19T08:06:00.843Z,75.19
2019-03-19T08:07:00.832Z,67.00
2019-03-19T08:08:00.816Z,70.09
2019-03-19T08:09:00.810Z,75.90
2019-03-19T08:10:00.858Z,69.50
2019-03-19T08:11:00.792Z,65.90
2019-03-19T08:12:00.777Z,72.69
2019-03-19T08:13:00.761Z,80.69
2019-03-19T08:14:00.750Z,76.50
2019-03-19T08:15:00.844Z,73.09
2019-03-19T08:16:00.734Z,75.09
2019-03-19T08:17:00.722Z,73.19
2019-03-19T08:18:00.709Z,85.50
2019-03-19T08:19:00.696Z,80.80
2019-03-19T08:20:00.842Z,76.90
2019-03-19T08:21:00.676Z,75.90
2019-03-19T08:22:00.663Z,78.00
2019-03-19T08:23:00.653Z,79.59
2019-03-19T08:24:00.644Z,82.90
2019-03-19T08:25:00.631Z,79.80
2019-03-19T08:26:00.669Z,81.40
2019-03-19T08:27:00.654Z,73.69
2019-03-19T08:28:00.601Z,77.09
2019-03-19T08:29:00.588Z,75.30
2019-03-19T08:30:00.578Z,75.59
2019-03-19T08:31:00.670Z,71.90
2019-03-19T08:32:00.565Z,69.90
2019-03-19T08:33:00.546Z,77.00
2019-03-19T08:34:00.542Z,75.00
2019-03-19T08:35:00.523Z,73.09
2019-03-19T08:36:08.985Z,75.19
2019-03-19T08:37:25.365Z,82.19
2019-03-19T08:38:26.560Z,77.80
2019-03-19T08:39:25.368Z,75.40
2019-03-19T08:40:25.336Z,74.69
2019-03-19T08:41:25.322Z,75.50
2019-03-19T08:42:25.363Z,77.80
2019-03-19T08:43:25.300Z,81.00
2019-03-19T08:44:27.977Z,74.00
2019-03-19T08:45:25.285Z,73.40
2019-03-19T08:46:25.269Z,67.50
2019-03-19T08:47:25.803Z,70.30
2019-03-19T08:48:25.245Z,68.09
2019-03-19T08:49:25.230Z,58.20
2019-03-19T08:50:25.226Z,52.90
2019-03-19T08:51:25.214Z,60.70
2019-03-19T08:52:25.204Z,52.79
2019-03-19T08:53:25.249Z,54.09
2019-03-19T08:54:25.179Z,57.50
2019-03-19T08:55:25.172Z,61.50
2019-03-19T08:56:25.158Z,51.70
2019-03-19T08:57:25.150Z,63.50
2019-03-19T08:58:25.140Z,52.59
2019-03-19T08:59:25.179Z,59.90
2019-03-19T09:00:25.114Z,58.20
2019-03-19T09:01:25.102Z,59.20
2019-03-19T09:02:25.088Z,61.20
2019-03-19T09:03:25.081Z,68.30
2019-03-19T09:04:25.065Z,71.50
2019-03-19T09:05:25.217Z,67.59
2019-03-19T09:06:25.045Z,75.80
2019-03-19T09:07:25.039Z,80.40
2019-03-19T09:08:25.024Z,67.19
2019-03-19T09:09:25.019Z,74.19
2019-03-19T09:10:25.107Z,79.59
2019-03-19T09:11:24.995Z,80.40
2019-03-19T09:12:24.984Z,84.19
2019-03-19T09:13:24.974Z,83.69
2019-03-19T09:14:24.964Z,83.09
2019-03-19T09:15:24.998Z,80.80
2019-03-19T09:16:24.937Z,85.80
2019-03-19T09:17:24.934Z,83.80
2019-03-19T09:18:24.919Z,84.30
2019-03-19T09:19:24.906Z,85.40
2019-03-19T09:20:24.897Z,82.40
2019-03-19T09:21:25.885Z,88.00
2019-03-19T09:22:29.564Z,70.30
2019-03-19T09:23:24.863Z,61.00
2019-03-19T09:24:24.851Z,79.50
2019-03-19T09:25:24.845Z,76.40
2019-03-19T09:26:24.829Z,67.30
2019-03-19T09:27:24.919Z,73.80
2019-03-19T09:28:24.810Z,70.40
2019-03-19T09:29:25.509Z,74.00
2019-03-19T09:30:24.788Z,71.69
2019-03-19T09:31:24.778Z,64.19
2019-03-19T09:32:24.769Z,78.19
2019-03-19T09:33:24.851Z,71.50
2019-03-19T09:34:24.748Z,68.40
2019-03-19T09:35:26.287Z,67.40
2019-03-19T09:36:24.722Z,73.30
2019-03-19T09:37:24.710Z,66.69
2019-03-19T09:38:24.698Z,70.40
2019-03-19T09:39:24.843Z,59.90
2019-03-19T09:40:24.675Z,66.69
2019-03-19T09:41:24.666Z,64.80
2019-03-19T09:42:24.652Z,72.00
2019-03-19T09:43:24.641Z,69.59
2019-03-19T09:44:24.639Z,66.19
2019-03-19T09:45:24.726Z,69.00
2019-03-19T09:46:24.610Z,58.29
2019-03-19T09:47:24.600Z,56.70
2019-03-19T09:48:24.590Z,62.79
2019-03-19T09:49:24.586Z,60.59
2019-03-19T09:50:24.568Z,54.79
2019-03-19T09:51:24.656Z,63.20
2019-03-19T09:52:24.542Z,60.29
2019-03-19T09:53:24.531Z,66.09
2019-03-19T09:54:24.521Z,67.40
2019-03-19T09:55:24.513Z,54.79
2019-03-19T09:56:24.548Z,65.00
2019-03-19T09:57:24.493Z,52.90
2019-03-19T09:58:24.477Z,57.09
2019-03-19T09:59:27.287Z,57.29
2019-03-19T10:00:24.462Z,55.79
2019-03-19T10:01:24.650Z,57.79
2019-03-19T10:02:24.441Z,60.20
2019-03-19T10:03:24.424Z,57.90
2019-03-19T10:04:24.411Z,57.40
2019-03-19T10:05:24.406Z,60.29
2019-03-19T10:06:24.389Z,52.59
2019-03-19T10:07:24.481Z,68.09
2019-03-19T10:08:24.368Z,50.59
2019-03-19T10:09:24.363Z,65.59
2019-03-19T10:10:24.365Z,60.90
2019-03-19T10:11:24.337Z,68.50
2019-03-19T10:12:24.326Z,55.20
2019-03-19T10:13:24.420Z,50.29
2019-03-19T10:14:24.304Z,47.90
2019-03-19T10:15:24.297Z,39.40
2019-03-19T10:16:24.283Z,43.59
2019-03-19T10:17:24.269Z,46.40
2019-03-19T10:18:24.265Z,39.00
2019-03-19T10:19:24.407Z,45.50
2019-03-19T10:20:24.239Z,50.29
2019-03-19T10:21:24.225Z,44.20
2019-03-19T10:22:24.216Z,47.20
2019-03-19T10:23:24.207Z,47.29
2019-03-19T10:24:24.241Z,47.40
2019-03-19T10:25:24.192Z,45.79
2019-03-19T10:26:24.181Z,46.59
2019-03-19T10:27:24.168Z,44.09
2019-03-19T10:28:24.153Z,47.00
2019-03-19T10:29:24.142Z,47.59
2019-03-19T10:30:24.253Z,45.79
2019-03-19T10:31:24.122Z,48.79
2019-03-19T10:32:24.113Z,48.59
2019-03-19T10:33:24.095Z,48.09
2019-03-19T10:34:24.090Z,44.00
2019-03-19T10:35:24.072Z,43.00
2019-03-19T10:36:24.217Z,40.00
2019-03-19T10:37:24.058Z,48.90
2019-03-19T10:38:24.049Z,40.50
2019-03-19T10:39:24.038Z,44.79
2019-03-19T10:40:24.030Z,43.29
2019-03-19T10:41:24.013Z,46.20
2019-03-19T10:42:24.136Z,41.20
2019-03-19T10:43:23.990Z,55.90
2019-03-19T10:44:23.980Z,39.70
2019-03-19T10:45:23.978Z,42.79
2019-03-19T10:46:23.965Z,39.59
2019-03-19T10:47:23.947Z,38.29
2019-03-19T10:48:24.034Z,45.00
2019-03-19T10:49:23.929Z,37.59
2019-03-19T10:50:23.917Z,49.29
2019-03-19T10:51:23.907Z,47.29
2019-03-19T10:52:23.892Z,34.79
2019-03-19T10:53:23.881Z,37.70
2019-03-19T10:54:23.979Z,41.90
2019-03-19T10:55:23.860Z,38.00
2019-03-19T10:56:23.851Z,46.50
2019-03-19T10:57:23.840Z,40.90
2019-03-19T10:58:23.828Z,44.09
2019-03-19T10:59:24.014Z,41.40
2019-03-19T11:00:23.811Z,36.20
2019-03-19T11:01:23.796Z,39.09
2019-03-19T11:02:23.785Z,44.29
2019-03-19T11:03:23.777Z,48.40
2019-03-19T11:04:23.815Z,40.29
2019-03-19T11:05:23.766Z,38.90
2019-03-19T11:06:23.739Z,45.29
2019-03-19T11:07:23.730Z,42.00
2019-03-19T11:08:23.727Z,44.50
2019-03-19T11:09:23.707Z,35.90
2019-03-19T11:10:23.805Z,39.20
2019-03-19T11:11:23.691Z,32.50
2019-03-19T11:12:23.680Z,34.09
2019-03-19T11:13:23.668Z,35.00
2019-03-19T11:14:23.661Z,40.70
2019-03-19T11:15:23.646Z,39.29
2019-03-19T11:16:23.883Z,35.29
2019-03-19T11:17:23.636Z,38.40
2019-03-19T11:18:23.606Z,43.90
2019-03-19T11:19:23.597Z,39.40
2019-03-19T11:20:23.586Z,35.00
2019-03-19T11:21:23.638Z,43.50
2019-03-19T11:22:23.669Z,39.00
2019-03-19T11:23:23.561Z,44.29
2019-03-19T11:24:23.558Z,38.90
2019-03-19T11:25:23.538Z,43.79
2019-03-19T11:26:23.524Z,41.29
2019-03-19T11:27:23.558Z,41.50
2019-03-19T11:28:23.609Z,37.29
2019-03-19T11:29:23.493Z,35.29
2019-03-19T11:30:23.481Z,40.90
2019-03-19T11:31:23.472Z,34.09
2019-03-19T11:32:23.459Z,35.79
2019-03-19T11:33:23.447Z,33.79
2019-03-19T11:34:23.641Z,48.29
2019-03-19T11:35:23.430Z,39.20
2019-03-19T11:36:23.414Z,42.20
2019-03-19T11:37:23.408Z,41.09
2019-03-19T11:38:23.390Z,37.59
2019-03-19T11:39:23.383Z,43.29
2019-03-19T11:40:25.610Z,37.29
2019-03-19T11:41:23.362Z,42.90
2019-03-19T11:42:23.350Z,40.00
2019-03-19T11:43:23.336Z,38.29
2019-03-19T11:44:23.327Z,42.00
2019-03-19T11:45:23.415Z,39.40
2019-03-19T11:46:23.312Z,38.20
2019-03-19T11:47:23.292Z,41.90
2019-03-19T11:48:23.282Z,42.79
2019-03-19T11:49:23.275Z,38.20
2019-03-19T11:50:23.508Z,42.59
2019-03-19T11:51:23.249Z,42.79
2019-03-19T11:52:23.241Z,31.00
2019-03-19T11:53:23.233Z,45.00
2019-03-19T11:54:23.216Z,47.59
2019-03-19T11:55:23.206Z,44.09
2019-03-19T11:57:23.282Z,36.90
2019-03-19T11:58:23.174Z,41.00
2019-03-19T11:59:23.165Z,38.50
2019-03-19T12:00:23.151Z,41.09
2019-03-19T12:01:23.137Z,43.40
2019-03-19T12:02:26.208Z,46.40
2019-03-19T12:03:23.115Z,47.09
2019-03-19T12:04:23.108Z,46.00
2019-03-19T12:05:23.092Z,39.09
2019-03-19T12:06:23.087Z,40.90
2019-03-19T12:07:23.072Z,39.40
2019-03-19T12:08:23.215Z,36.20
2019-03-19T12:09:23.115Z,47.40
2019-03-19T12:10:23.040Z,42.90
2019-03-19T12:11:23.030Z,40.79
2019-03-19T12:12:23.016Z,45.29
2019-03-19T12:13:23.015Z,40.50
2019-03-19T12:14:23.101Z,42.70
2019-03-19T12:15:22.986Z,41.20
2019-03-19T12:16:22.981Z,42.20
2019-03-19T12:17:22.960Z,40.00
2019-03-19T12:18:22.951Z,39.70
2019-03-19T12:19:22.946Z,39.00
2019-03-19T12:20:23.032Z,42.70
2019-03-19T12:21:22.917Z,40.09
2019-03-19T12:22:22.916Z,39.79
2019-03-19T12:23:22.900Z,38.29
2019-03-19T12:24:22.892Z,38.59
2019-03-19T12:25:22.930Z,38.59
2019-03-19T12:26:22.866Z,41.20
2019-03-19T12:27:22.861Z,33.50
2019-03-19T12:28:22.850Z,43.00
2019-03-19T12:29:22.829Z,35.59
2019-03-19T12:30:25.993Z,33.40
2019-03-19T12:31:22.809Z,36.09
2019-03-19T12:32:22.795Z,50.09
2019-03-19T12:33:22.790Z,41.70
2019-03-19T12:34:22.772Z,32.59
2019-03-19T12:35:22.772Z,36.00
2019-03-19T12:36:22.859Z,39.09
2019-03-19T12:37:22.748Z,37.90
2019-03-19T12:38:22.744Z,45.29
2019-03-19T12:39:22.725Z,39.40
2019-03-19T12:40:22.715Z,36.29
2019-03-19T12:41:22.700Z,44.09
2019-03-19T12:42:22.789Z,36.40
2019-03-19T12:43:22.683Z,39.70
2019-03-19T12:44:22.668Z,43.59
2019-03-19T12:45:22.728Z,44.09
2019-03-19T12:46:22.651Z,41.29
2019-03-19T12:47:22.632Z,41.79
2019-03-19T12:48:22.873Z,36.00
2019-03-19T12:49:22.616Z,42.90
2019-03-19T12:50:22.602Z,38.79
2019-03-19T12:51:22.590Z,43.50
2019-03-19T12:52:22.579Z,40.59
2019-03-19T12:53:22.574Z,43.29
2019-03-19T12:54:22.663Z,48.09
2019-03-19T12:55:22.552Z,39.40